Time;durP1;ratioP1;P1;durP2;ratioP2;P2;SDS_P1;SDS_P2;PMS_P1;PMS_P2;Temp;Humidity;BMP_temperature;BMP_pressure;BME280_temperature;BME280_humidity;BME280_pressure;Samples;Min_cycle;Max_cycle;Signal;HPM_P1;HPM_P2
2023/08/14 00:00:01;;;;;;;1.80;0.65;;;;;;;;;;5061146;28;20041;-65
2023/08/14 00:02:30;;;;;;;1.70;0.85;;;;;;;;;;5061004;28;20504;-65
2023/08/14 00:04:58;;;;;;;0.90;0.85;;;;;;;;;;5059708;28;20058;-65
2023/08/14 00:07:26;;;;;;;5.53;0.80;;;;;;;;;;5058456;28;20068;-64
2023/08/14 00:09:56;;;;;;;0.85;0.70;;;;;;;;;;5061440;28;20325;-65
2023/08/14 00:12:24;;;;;;;3.13;1.00;;;;;;;;;;5058790;28;20059;-65
2023/08/14 00:14:53;;;;;;;1.17;0.70;;;;;;;;;;5060725;28;20099;-66
2023/08/14 00:17:21;;;;;;;0.90;0.63;;;;;;;;;;5059433;28;20045;-63
2023/08/14 00:19:50;;;;;;;2.35;0.80;;;;;;;;;;5062304;28;20079;-64
2023/08/14 00:22:18;;;;;;;1.80;0.80;;;;;;;;;;5059938;28;20615;-65
2023/08/14 00:24:47;;;;;;;1.08;0.85;;;;;;;;;;5060519;28;20500;-65
2023/08/14 00:27:16;;;;;;;1.33;0.68;;;;;;;;;;5056997;28;20080;-65
2023/08/14 00:29:45;;;;;;;0.80;0.70;;;;;;;;;;5061521;28;20064;-65
2023/08/14 00:32:13;;;;;;;1.67;0.73;;;;;;;;;;5061567;28;20690;-65
2023/08/14 00:34:42;;;;;;;1.20;0.77;;;;;;;;;;5059472;28;20052;-66
2023/08/14 00:37:11;;;;;;;3.75;0.93;;;;;;;;;;5060020;28;20125;-65
2023/08/14 00:39:39;;;;;;;1.23;0.77;;;;;;;;;;5060636;28;20044;-66
2023/08/14 00:42:07;;;;;;;1.13;0.85;;;;;;;;;;5059740;28;20542;-64
2023/08/14 00:44:37;;;;;;;1.00;0.60;;;;;;;;;;5060604;28;20110;-65
2023/08/14 00:47:06;;;;;;;0.90;0.63;;;;;;;;;;5061037;28;20048;-66
2023/08/14 00:49:35;;;;;;;0.70;0.52;;;;;;;;;;5066722;28;20105;-66
2023/08/14 00:52:03;;;;;;;3.00;0.70;;;;;;;;;;5065348;28;20045;-65
2023/08/14 00:54:31;;;;;;;4.13;0.75;;;;;;;;;;5061573;28;20044;-64
2023/08/14 00:57:00;;;;;;;1.88;0.70;;;;;;;;;;5063471;28;20056;-66
2023/08/14 00:59:29;;;;;;;1.58;0.60;;;;;;;;;;5063833;28;20538;-65
2023/08/14 01:01:59;;;;;;;1.33;0.60;;;;;;;;;;5081886;22;20642;-66
2023/08/14 01:04:27;;;;;;;1.63;0.60;;;;;;;;;;5097555;27;20051;-72
2023/08/14 01:06:56;;;;;;;6.85;0.70;;;;;;;;;;5102897;27;20109;-74
2023/08/14 01:09:25;;;;;;;1.02;0.73;;;;;;;;;;5105575;27;20046;-68
2023/08/14 01:11:58;;;;;;;4.15;0.77;;;;;;;;;;5101201;27;20495;-65
2023/08/14 01:14:28;;;;;;;1.15;0.70;;;;;;;;;;5097433;27;20056;-70
2023/08/14 01:16:58;;;;;;;6.60;0.60;;;;;;;;;;5099049;27;20207;-67
2023/08/14 01:19:30;;;;;;;3.45;0.68;;;;;;;;;;5101726;27;20083;-68
2023/08/14 01:22:04;;;;;;;4.40;0.45;;;;;;;;;;5098125;27;20488;-66
2023/08/14 01:24:40;;;;;;;0.52;0.52;;;;;;;;;;5101367;28;20407;-71
2023/08/14 01:27:10;;;;;;;1.42;0.55;;;;;;;;;;5101406;27;20085;-66
2023/08/14 01:29:40;;;;;;;1.13;0.60;;;;;;;;;;5103659;27;20649;-67
2023/08/14 01:32:08;;;;;;;1.23;0.60;;;;;;;;;;5100506;27;20540;-70
2023/08/14 01:34:36;;;;;;;1.15;0.70;;;;;;;;;;5103140;27;20121;-71
2023/08/14 01:37:08;;;;;;;2.13;0.60;;;;;;;;;;5101150;27;20055;-68
2023/08/14 01:39:42;;;;;;;1.55;0.68;;;;;;;;;;5104120;27;20096;-72
2023/08/14 01:42:16;;;;;;;4.15;0.60;;;;;;;;;;5099058;27;20036;-66
2023/08/14 01:44:46;;;;;;;4.15;1.17;;;;;;;;;;5105177;27;20074;-66
2023/08/14 01:47:17;;;;;;;0.90;0.50;;;;;;;;;;5101869;27;20476;-67
2023/08/14 01:49:45;;;;;;;2.95;0.60;;;;;;;;;;5106715;27;20094;-67
2023/08/14 01:52:14;;;;;;;1.10;0.70;;;;;;;;;;5090207;27;20064;-66
2023/08/14 01:54:46;;;;;;;1.30;0.60;;;;;;;;;;5082439;28;20046;-68
2023/08/14 01:57:15;;;;;;;1.27;0.75;;;;;;;;;;5089067;28;20156;-67
2023/08/14 01:59:45;;;;;;;1.02;0.60;;;;;;;;;;5086249;28;20100;-71
2023/08/14 02:02:14;;;;;;;2.75;0.70;;;;;;;;;;5087290;28;20156;-66
2023/08/14 02:04:43;;;;;;;1.77;0.60;;;;;;;;;;5090507;28;20096;-65
2023/08/14 02:07:11;;;;;;;1.02;0.63;;;;;;;;;;5088909;28;20121;-66
2023/08/14 02:09:40;;;;;;;0.98;0.60;;;;;;;;;;5086521;28;20047;-66
2023/08/14 02:12:08;;;;;;;1.10;0.60;;;;;;;;;;5084068;28;20767;-65
2023/08/14 02:14:38;;;;;;;3.88;0.70;;;;;;;;;;5085898;28;20168;-65
2023/08/14 02:17:08;;;;;;;1.92;0.55;;;;;;;;;;5086237;28;20109;-65
2023/08/14 02:19:36;;;;;;;0.55;0.47;;;;;;;;;;5090357;28;20092;-66
2023/08/14 02:22:04;;;;;;;3.92;0.73;;;;;;;;;;5087146;28;20534;-66
2023/08/14 02:24:33;;;;;;;4.05;1.00;;;;;;;;;;5079883;28;20040;-66
2023/08/14 02:27:01;;;;;;;0.70;0.50;;;;;;;;;;5087618;28;20129;-67
2023/08/14 02:29:29;;;;;;;4.38;0.82;;;;;;;;;;5081978;28;20163;-69
2023/08/14 02:31:59;;;;;;;8.32;1.73;;;;;;;;;;5084205;28;20071;-68
2023/08/14 02:34:34;;;;;;;9.85;2.15;;;;;;;;;;5086389;28;20484;-73
2023/08/14 02:37:03;;;;;;;5.18;1.73;;;;;;;;;;5085495;28;20116;-73
2023/08/14 02:39:31;;;;;;;5.28;1.42;;;;;;;;;;5082039;28;20056;-65
2023/08/14 02:41:59;;;;;;;4.28;1.25;;;;;;;;;;5080907;28;20141;-67
2023/08/14 02:44:28;;;;;;;4.43;1.33;;;;;;;;;;5078987;28;20048;-67
2023/08/14 02:46:56;;;;;;;9.35;1.80;;;;;;;;;;5081615;28;20048;-66
2023/08/14 02:49:26;;;;;;;6.15;1.90;;;;;;;;;;5083003;28;20044;-69
2023/08/14 02:51:54;;;;;;;5.43;1.42;;;;;;;;;;5084366;28;20621;-66
2023/08/14 02:54:23;;;;;;;7.43;1.40;;;;;;;;;;5081510;28;20075;-68
2023/08/14 02:56:51;;;;;;;2.88;1.25;;;;;;;;;;5082538;28;20570;-66
2023/08/14 02:59:22;;;;;;;3.28;1.25;;;;;;;;;;5081050;28;20060;-65
2023/08/14 03:01:51;;;;;;;6.32;1.02;;;;;;;;;;5083872;28;20035;-71
2023/08/14 03:04:19;;;;;;;4.60;0.95;;;;;;;;;;5086328;28;20067;-65
2023/08/14 03:06:49;;;;;;;3.25;1.08;;;;;;;;;;5081760;28;20484;-66
2023/08/14 03:09:17;;;;;;;3.65;0.93;;;;;;;;;;5083237;28;20565;-69
2023/08/14 03:11:46;;;;;;;3.25;0.95;;;;;;;;;;5085037;28;20072;-67
2023/08/14 03:14:14;;;;;;;1.98;0.80;;;;;;;;;;5085363;28;20110;-67
2023/08/14 03:16:42;;;;;;;2.22;0.80;;;;;;;;;;5082734;28;20044;-67
2023/08/14 03:19:11;;;;;;;1.65;0.80;;;;;;;;;;5085000;28;20322;-71
2023/08/14 03:21:39;;;;;;;1.48;0.82;;;;;;;;;;5081303;28;20167;-66
2023/08/14 03:24:09;;;;;;;3.78;0.65;;;;;;;;;;5079920;28;20047;-69
2023/08/14 03:26:37;;;;;;;2.15;0.75;;;;;;;;;;5083147;28;21899;-68
2023/08/14 03:29:06;;;;;;;2.13;0.82;;;;;;;;;;5079487;28;20056;-67
2023/08/14 03:31:34;;;;;;;3.55;0.82;;;;;;;;;;5082251;28;20059;-68
2023/08/14 03:34:02;;;;;;;2.17;0.70;;;;;;;;;;5085360;28;20488;-67
2023/08/14 03:36:31;;;;;;;5.88;1.10;;;;;;;;;;5082945;28;20055;-67
2023/08/14 03:38:59;;;;;;;1.88;0.90;;;;;;;;;;5078264;28;20483;-68
2023/08/14 03:41:29;;;;;;;2.15;1.40;;;;;;;;;;5086690;28;20047;-71
2023/08/14 03:43:57;;;;;;;6.75;0.80;;;;;;;;;;5081827;28;20055;-68
2023/08/14 03:46:26;;;;;;;1.77;0.57;;;;;;;;;;5078091;28;20410;-67
2023/08/14 03:48:54;;;;;;;3.35;1.00;;;;;;;;;;5080801;28;20303;-67
2023/08/14 03:51:22;;;;;;;2.60;0.47;;;;;;;;;;5078589;28;20121;-65
2023/08/14 03:53:51;;;;;;;1.98;0.70;;;;;;;;;;5078010;28;20131;-66
2023/08/14 03:56:19;;;;;;;2.47;0.73;;;;;;;;;;5079590;28;20064;-74
2023/08/14 03:58:49;;;;;;;0.35;0.35;;;;;;;;;;5081390;28;20060;-71
2023/08/14 04:01:17;;;;;;;1.10;0.80;;;;;;;;;;5076387;28;20125;-66
2023/08/14 04:03:46;;;;;;;3.28;0.85;;;;;;;;;;5077473;28;20372;-66
2023/08/14 04:06:14;;;;;;;1.83;0.70;;;;;;;;;;5083033;28;20122;-66
2023/08/14 04:08:43;;;;;;;1.65;0.73;;;;;;;;;;5084556;28;20119;-67
2023/08/14 04:11:12;;;;;;;1.33;0.60;;;;;;;;;;5079092;28;20071;-71
2023/08/14 04:13:40;;;;;;;3.67;0.60;;;;;;;;;;5078633;28;20079;-69
2023/08/14 04:16:10;;;;;;;0.75;0.60;;;;;;;;;;5075794;28;20537;-67
2023/08/14 04:18:39;;;;;;;1.38;0.75;;;;;;;;;;5082717;28;20043;-67
2023/08/14 04:21:07;;;;;;;1.08;0.80;;;;;;;;;;5083079;28;20102;-71
2023/08/14 04:23:35;;;;;;;2.80;0.70;;;;;;;;;;5084970;28;20106;-66
2023/08/14 04:26:04;;;;;;;1.05;0.70;;;;;;;;;;5085734;28;20128;-66
2023/08/14 04:28:32;;;;;;;1.35;0.70;;;;;;;;;;5084577;28;20142;-68
2023/08/14 04:31:01;;;;;;;4.93;0.70;;;;;;;;;;5082650;28;20059;-67
2023/08/14 04:33:30;;;;;;;3.53;0.88;;;;;;;;;;5086304;28;20123;-66
2023/08/14 04:35:59;;;;;;;2.53;0.60;;;;;;;;;;5085099;28;20083;-66
2023/08/14 04:38:27;;;;;;;2.75;1.00;;;;;;;;;;5087406;28;20442;-68
2023/08/14 04:40:55;;;;;;;1.65;0.70;;;;;;;;;;5084277;28;20544;-66
2023/08/14 04:43:24;;;;;;;0.82;0.60;;;;;;;;;;5087230;28;20068;-65
2023/08/14 04:45:52;;;;;;;1.20;0.73;;;;;;;;;;5085839;28;20094;-67
2023/08/14 04:48:20;;;;;;;1.00;0.70;;;;;;;;;;5087022;28;20623;-68
2023/08/14 04:50:50;;;;;;;1.17;0.82;;;;;;;;;;5084860;28;20131;-68
2023/08/14 04:53:19;;;;;;;1.00;0.63;;;;;;;;;;5087115;28;20071;-65
2023/08/14 04:55:47;;;;;;;2.45;0.98;;;;;;;;;;5081657;28;20457;-68
2023/08/14 04:58:15;;;;;;;2.00;1.10;;;;;;;;;;5086758;28;20056;-66
2023/08/14 05:00:46;;;;;;;0.85;0.63;;;;;;;;;;5080816;28;20044;-66
2023/08/14 05:03:15;;;;;;;1.20;0.90;;;;;;;;;;5082414;28;20308;-66
2023/08/14 05:05:44;;;;;;;3.80;0.75;;;;;;;;;;5083174;28;20131;-67
2023/08/14 05:08:14;;;;;;;1.20;0.70;;;;;;;;;;5086711;28;20446;-71
2023/08/14 05:10:42;;;;;;;0.80;0.68;;;;;;;;;;5085663;28;20120;-65
2023/08/14 05:13:10;;;;;;;1.33;0.60;;;;;;;;;;5090835;28;20480;-66
2023/08/14 05:15:39;;;;;;;1.60;0.90;;;;;;;;;;5081971;28;20136;-72
2023/08/14 05:18:07;;;;;;;4.97;0.85;;;;;;;;;;5085853;28;20334;-72
2023/08/14 05:20:36;;;;;;;2.25;0.82;;;;;;;;;;5082984;28;20040;-68
2023/08/14 05:23:05;;;;;;;1.00;0.70;;;;;;;;;;5085702;28;20085;-65
2023/08/14 05:25:35;;;;;;;3.10;0.75;;;;;;;;;;5082616;28;20043;-66
2023/08/14 05:28:03;;;;;;;3.88;1.00;;;;;;;;;;5088180;28;20068;-69
2023/08/14 05:30:32;;;;;;;1.60;0.90;;;;;;;;;;5084955;28;20047;-73
2023/08/14 05:33:00;;;;;;;1.63;1.05;;;;;;;;;;5085166;28;20100;-73
2023/08/14 05:35:30;;;;;;;4.15;1.13;;;;;;;;;;5084136;28;20052;-66
2023/08/14 05:37:58;;;;;;;2.33;1.10;;;;;;;;;;5081230;28;20037;-67
2023/08/14 05:40:27;;;;;;;1.35;1.10;;;;;;;;;;5088624;28;20436;-68
2023/08/14 05:43:07;;;;;;;3.42;1.30;;;;;;;;;;5084459;28;20341;-68
2023/08/14 05:45:37;;;;;;;1.65;1.10;;;;;;;;;;5082382;28;20075;-66
2023/08/14 05:48:06;;;;;;;1.77;0.90;;;;;;;;;;5084160;28;20079;-66
2023/08/14 05:50:35;;;;;;;1.30;1.05;;;;;;;;;;5088199;28;20048;-66
2023/08/14 05:53:04;;;;;;;3.47;1.73;;;;;;;;;;5086936;28;20060;-67
2023/08/14 05:55:33;;;;;;;2.00;1.20;;;;;;;;;;5086153;28;20321;-67
2023/08/14 05:58:02;;;;;;;2.65;1.50;;;;;;;;;;5084032;28;20047;-65
2023/08/14 06:00:32;;;;;;;6.55;1.35;;;;;;;;;;5077408;28;20052;-69
2023/08/14 06:03:00;;;;;;;1.10;0.93;;;;;;;;;;5085280;28;20048;-70
2023/08/14 06:05:29;;;;;;;3.17;1.10;;;;;;;;;;5087176;28;20531;-69
2023/08/14 06:07:57;;;;;;;1.45;0.93;;;;;;;;;;5084848;28;20384;-70
2023/08/14 06:10:26;;;;;;;1.45;1.08;;;;;;;;;;5085014;28;20412;-67
2023/08/14 06:12:54;;;;;;;2.08;1.13;;;;;;;;;;5086071;28;20115;-71
2023/08/14 06:15:24;;;;;;;4.45;1.48;;;;;;;;;;5082005;28;20055;-66
2023/08/14 06:17:54;;;;;;;2.42;1.20;;;;;;;;;;5082370;28;20400;-65
2023/08/14 06:20:22;;;;;;;1.75;1.10;;;;;;;;;;5080526;28;20048;-72
2023/08/14 06:22:51;;;;;;;2.10;0.95;;;;;;;;;;5084574;28;20039;-67
2023/08/14 06:25:19;;;;;;;3.13;1.20;;;;;;;;;;5088408;28;20039;-66
2023/08/14 06:27:49;;;;;;;1.70;1.13;;;;;;;;;;5089036;28;20048;-66
2023/08/14 06:30:17;;;;;;;2.10;1.30;;;;;;;;;;5082920;28;20055;-68
2023/08/14 06:32:45;;;;;;;1.92;1.20;;;;;;;;;;5085306;28;20047;-66
2023/08/14 06:35:15;;;;;;;1.60;1.15;;;;;;;;;;5084509;28;20604;-71
2023/08/14 06:37:44;;;;;;;3.17;1.30;;;;;;;;;;5085910;28;20046;-68
2023/08/14 06:40:12;;;;;;;4.40;1.48;;;;;;;;;;5079777;28;20040;-67
2023/08/14 06:42:41;;;;;;;1.85;1.10;;;;;;;;;;5082843;28;20561;-68
2023/08/14 06:45:10;;;;;;;1.90;1.02;;;;;;;;;;5081300;28;20044;-67
2023/08/14 06:47:43;;;;;;;1.38;1.10;;;;;;;;;;5086928;28;20044;-65
2023/08/14 06:50:12;;;;;;;3.58;1.33;;;;;;;;;;5087118;28;21134;-72
2023/08/14 06:52:42;;;;;;;4.07;1.38;;;;;;;;;;5082442;28;20091;-68
2023/08/14 06:55:10;;;;;;;3.05;1.77;;;;;;;;;;5076880;28;20749;-66
2023/08/14 06:57:39;;;;;;;1.98;1.20;;;;;;;;;;5086961;28;20039;-68
2023/08/14 07:00:12;;;;;;;3.10;1.20;;;;;;;;;;5083552;28;20409;-66
2023/08/14 07:02:40;;;;;;;7.72;1.55;;;;;;;;;;5082861;28;20074;-70
2023/08/14 07:05:11;;;;;;;4.90;1.33;;;;;;;;;;5087946;28;20123;-73
2023/08/14 07:07:39;;;;;;;2.42;1.25;;;;;;;;;;5080803;28;20062;-66
2023/08/14 07:10:10;;;;;;;3.40;1.40;;;;;;;;;;5081569;28;20082;-65
2023/08/14 07:12:38;;;;;;;1.95;1.20;;;;;;;;;;5079846;28;20485;-74
2023/08/14 07:15:10;;;;;;;2.05;1.30;;;;;;;;;;5083077;28;20577;-62
2023/08/14 07:17:39;;;;;;;2.90;1.10;;;;;;;;;;5085552;28;20071;-62
2023/08/14 07:20:09;;;;;;;2.33;1.88;;;;;;;;;;5077269;28;20043;-66
2023/08/14 07:22:38;;;;;;;1.85;1.20;;;;;;;;;;5085972;28;20071;-63
2023/08/14 07:25:07;;;;;;;1.60;1.20;;;;;;;;;;5080152;28;20128;-63
2023/08/14 07:27:37;;;;;;;3.38;1.40;;;;;;;;;;5080533;28;20079;-65
2023/08/14 07:30:06;;;;;;;5.18;1.30;;;;;;;;;;5081324;28;20048;-63
2023/08/14 07:32:34;;;;;;;1.75;1.25;;;;;;;;;;5073777;28;20113;-69
2023/08/14 07:35:03;;;;;;;5.20;1.38;;;;;;;;;;5081883;28;20051;-63
2023/08/14 07:37:31;;;;;;;3.17;1.33;;;;;;;;;;5078121;28;20044;-66
2023/08/14 07:40:01;;;;;;;2.90;1.35;;;;;;;;;;5082050;28;20048;-66
2023/08/14 07:42:29;;;;;;;1.63;1.23;;;;;;;;;;5079217;28;22256;-67
2023/08/14 07:44:59;;;;;;;1.65;1.20;;;;;;;;;;5080895;28;20563;-64
2023/08/14 07:47:28;;;;;;;2.17;1.30;;;;;;;;;;5080478;28;20071;-65
2023/08/14 07:49:56;;;;;;;2.40;1.20;;;;;;;;;;5082232;28;20556;-67
2023/08/14 07:52:27;;;;;;;1.88;1.55;;;;;;;;;;5078431;28;20059;-68
2023/08/14 07:54:56;;;;;;;1.40;1.10;;;;;;;;;;5086897;28;20109;-64
2023/08/14 07:57:25;;;;;;;2.67;1.45;;;;;;;;;;5080059;28;20444;-65
2023/08/14 07:59:54;;;;;;;4.90;1.60;;;;;;;;;;5087269;28;20432;-68
2023/08/14 08:02:24;;;;;;;3.60;1.25;;;;;;;;;;5081784;28;20515;-64
2023/08/14 08:04:55;;;;;;;2.75;1.42;;;;;;;;;;5087117;28;20496;-63
2023/08/14 08:07:23;;;;;;;1.52;1.20;;;;;;;;;;5090596;28;20458;-70
2023/08/14 08:09:53;;;;;;;2.92;1.20;;;;;;;;;;5088615;28;20123;-64
2023/08/14 08:12:21;;;;;;;2.88;1.50;;;;;;;;;;5088940;28;20052;-65
2023/08/14 08:14:50;;;;;;;2.63;1.55;;;;;;;;;;5087461;28;20123;-66
2023/08/14 08:17:18;;;;;;;2.53;1.30;;;;;;;;;;5085695;28;20036;-65
2023/08/14 08:19:48;;;;;;;1.98;1.13;;;;;;;;;;5086568;28;20055;-67
2023/08/14 08:22:16;;;;;;;2.33;1.27;;;;;;;;;;5089320;28;20526;-68
2023/08/14 08:24:46;;;;;;;3.47;1.42;;;;;;;;;;5077224;28;20056;-69
2023/08/14 08:27:14;;;;;;;2.65;1.40;;;;;;;;;;5078252;28;20059;-68
2023/08/14 08:29:43;;;;;;;2.00;1.25;;;;;;;;;;5084996;28;20071;-68
2023/08/14 08:32:11;;;;;;;1.95;1.52;;;;;;;;;;5085367;28;20457;-66
2023/08/14 08:34:40;;;;;;;3.75;1.50;;;;;;;;;;5085360;28;20141;-63
2023/08/14 08:37:09;;;;;;;2.58;1.58;;;;;;;;;;5080336;28;20048;-63
2023/08/14 08:39:38;;;;;;;1.95;1.70;;;;;;;;;;5087102;28;20125;-63
2023/08/14 08:42:08;;;;;;;1.60;1.50;;;;;;;;;;5085078;28;20274;-63
2023/08/14 08:44:38;;;;;;;2.67;1.48;;;;;;;;;;5079421;28;20052;-70
2023/08/14 08:47:09;;;;;;;2.15;1.40;;;;;;;;;;5084416;28;20059;-63
2023/08/14 08:49:37;;;;;;;1.83;1.63;;;;;;;;;;5085892;28;20052;-65
2023/08/14 08:52:07;;;;;;;1.90;1.58;;;;;;;;;;5088312;28;20052;-64
2023/08/14 08:54:37;;;;;;;2.13;1.52;;;;;;;;;;5083988;28;20063;-64
2023/08/14 08:57:06;;;;;;;3.53;1.85;;;;;;;;;;5080373;28;20102;-64
2023/08/14 08:59:34;;;;;;;4.20;1.77;;;;;;;;;;5084708;28;20083;-63
2023/08/14 09:02:03;;;;;;;4.13;1.73;;;;;;;;;;5084886;28;20074;-63
2023/08/14 09:04:31;;;;;;;4.75;1.77;;;;;;;;;;5085608;28;20234;-64
2023/08/14 09:07:00;;;;;;;2.75;1.77;;;;;;;;;;5078157;28;20048;-63
2023/08/14 09:09:28;;;;;;;1.85;1.65;;;;;;;;;;5077216;28;20372;-64
2023/08/14 09:11:58;;;;;;;5.32;1.67;;;;;;;;;;5081147;28;20057;-65
2023/08/14 09:14:27;;;;;;;6.00;2.13;;;;;;;;;;5081432;28;20495;-65
2023/08/14 09:16:57;;;;;;;4.38;1.90;;;;;;;;;;5080971;28;20156;-64
2023/08/14 09:19:26;;;;;;;2.17;1.73;;;;;;;;;;5083771;28;20159;-63
2023/08/14 09:21:54;;;;;;;2.25;1.50;;;;;;;;;;5082301;28;20051;-64
2023/08/14 09:24:23;;;;;;;2.92;1.77;;;;;;;;;;5078845;28;21181;-65
2023/08/14 09:26:51;;;;;;;2.42;1.80;;;;;;;;;;5082891;28;20492;-66
2023/08/14 09:29:21;;;;;;;2.17;1.50;;;;;;;;;;5082178;28;20052;-62
2023/08/14 09:31:50;;;;;;;2.67;1.60;;;;;;;;;;5083151;28;20064;-66
2023/08/14 09:34:18;;;;;;;2.13;1.50;;;;;;;;;;5080544;28;20105;-67
2023/08/14 09:36:48;;;;;;;1.58;1.48;;;;;;;;;;5083152;28;20379;-66
2023/08/14 09:39:18;;;;;;;2.13;1.50;;;;;;;;;;5078082;28;20054;-68
2023/08/14 09:41:48;;;;;;;2.25;1.85;;;;;;;;;;5085063;28;20349;-65
2023/08/14 09:44:19;;;;;;;6.25;1.90;;;;;;;;;;5080496;28;20070;-66
2023/08/14 09:46:51;;;;;;;2.38;2.08;;;;;;;;;;5082559;28;20044;-64
2023/08/14 09:49:20;;;;;;;5.13;2.10;;;;;;;;;;5080356;28;20496;-64
2023/08/14 09:51:58;;;;;;;2.80;1.80;;;;;;;;;;5083580;28;20120;-64
2023/08/14 09:54:33;;;;;;;4.53;1.90;;;;;;;;;;5086305;28;20128;-63
2023/08/14 09:57:04;;;;;;;4.50;2.05;;;;;;;;;;5083510;28;20054;-63
2023/08/14 09:59:36;;;;;;;4.57;1.50;;;;;;;;;;5077776;28;20124;-63
2023/08/14 10:02:07;;;;;;;3.42;1.67;;;;;;;;;;5076794;28;20064;-63
2023/08/14 10:04:37;;;;;;;2.72;1.80;;;;;;;;;;5051957;28;20049;-62
2023/08/14 10:07:05;;;;;;;1.88;1.70;;;;;;;;;;5051251;28;20067;-63
2023/08/14 10:09:37;;;;;;;3.55;1.80;;;;;;;;;;5049980;28;20044;-64
2023/08/14 10:12:08;;;;;;;2.53;1.80;;;;;;;;;;5052434;28;20051;-67
2023/08/14 10:14:37;;;;;;;2.45;1.88;;;;;;;;;;5052710;28;20323;-64
2023/08/14 10:17:08;;;;;;;3.63;1.80;;;;;;;;;;5055482;28;20347;-64
2023/08/14 10:19:37;;;;;;;3.22;1.67;;;;;;;;;;5056814;28;20126;-65
2023/08/14 10:22:07;;;;;;;2.35;1.67;;;;;;;;;;5052198;28;20066;-64
2023/08/14 10:24:36;;;;;;;2.88;1.58;;;;;;;;;;5054114;28;20094;-63
2023/08/14 10:27:05;;;;;;;3.58;1.60;;;;;;;;;;5054489;28;20060;-62
2023/08/14 10:29:36;;;;;;;3.08;1.70;;;;;;;;;;5053578;28;20041;-68
2023/08/14 10:32:05;;;;;;;1.65;1.40;;;;;;;;;;5056019;28;20037;-63
2023/08/14 10:34:35;;;;;;;3.25;1.75;;;;;;;;;;5055735;28;20048;-63
2023/08/14 10:37:04;;;;;;;1.38;1.27;;;;;;;;;;5054090;28;20074;-63
2023/08/14 10:39:36;;;;;;;4.88;1.80;;;;;;;;;;5054490;28;20370;-63
2023/08/14 10:42:05;;;;;;;2.17;1.92;;;;;;;;;;5054109;28;20474;-62
2023/08/14 10:44:36;;;;;;;2.90;1.60;;;;;;;;;;5053840;28;20481;-61
2023/08/14 10:47:07;;;;;;;2.50;1.92;;;;;;;;;;5052056;28;20487;-63
2023/08/14 10:49:45;;;;;;;3.83;1.90;;;;;;;;;;5053452;28;20075;-63
2023/08/14 10:52:14;;;;;;;2.85;1.63;;;;;;;;;;5051555;28;20103;-68
2023/08/14 10:54:45;;;;;;;4.55;1.85;;;;;;;;;;5052844;28;20442;-65
2023/08/14 10:57:13;;;;;;;3.05;1.70;;;;;;;;;;5055437;28;20624;-61
2023/08/14 10:59:42;;;;;;;3.05;1.70;;;;;;;;;;5055266;28;20036;-65
2023/08/14 11:02:14;;;;;;;1.83;1.65;;;;;;;;;;5057769;28;21055;-68
2023/08/14 11:07:38;;;;;;;3.65;1.50;;;;;;;;;;5130280;27;21275;-61
2023/08/14 11:10:07;;;;;;;1.85;1.55;;;;;;;;;;5118785;27;20047;-63
2023/08/14 11:12:35;;;;;;;5.68;2.08;;;;;;;;;;5118396;27;20533;-62
2023/08/14 11:15:04;;;;;;;3.10;2.00;;;;;;;;;;5081108;27;20052;-67
2023/08/14 11:17:32;;;;;;;2.97;1.60;;;;;;;;;;5063427;28;20049;-64
2023/08/14 11:20:02;;;;;;;2.55;1.80;;;;;;;;;;5063155;28;20084;-61
2023/08/14 11:22:31;;;;;;;9.95;2.67;;;;;;;;;;5058334;28;20045;-63
2023/08/14 11:25:01;;;;;;;2.38;2.13;;;;;;;;;;5054506;28;20060;-61
2023/08/14 11:27:29;;;;;;;2.92;2.00;;;;;;;;;;5055152;28;20036;-63
2023/08/14 11:29:58;;;;;;;1.70;1.58;;;;;;;;;;5056563;28;20056;-61
2023/08/14 11:32:29;;;;;;;2.35;1.92;;;;;;;;;;5058579;28;20406;-61
2023/08/14 11:34:58;;;;;;;3.28;1.50;;;;;;;;;;5056754;28;20037;-65
2023/08/14 11:37:27;;;;;;;5.32;1.90;;;;;;;;;;5055757;28;20060;-63
2023/08/14 11:39:55;;;;;;;2.10;1.65;;;;;;;;;;5059502;28;20053;-62
2023/08/14 11:42:25;;;;;;;2.85;1.65;;;;;;;;;;5059400;28;20052;-62
2023/08/14 11:44:53;;;;;;;4.30;1.60;;;;;;;;;;5058954;28;21225;-62
2023/08/14 11:47:23;;;;;;;2.35;1.70;;;;;;;;;;5060982;28;20040;-63
2023/08/14 11:49:52;;;;;;;1.80;1.55;;;;;;;;;;5057108;28;20117;-63
2023/08/14 11:52:21;;;;;;;2.75;1.95;;;;;;;;;;5058024;28;20053;-63
2023/08/14 11:54:52;;;;;;;2.58;1.70;;;;;;;;;;5069263;28;20148;-61
2023/08/14 11:57:23;;;;;;;4.35;1.88;;;;;;;;;;5078192;28;20324;-62
2023/08/14 11:59:54;;;;;;;4.00;1.80;;;;;;;;;;5073504;28;20079;-62
2023/08/14 12:02:23;;;;;;;1.70;1.58;;;;;;;;;;5073347;28;20040;-62
2023/08/14 12:04:53;;;;;;;1.65;1.52;;;;;;;;;;5074515;28;20451;-61
2023/08/14 12:07:21;;;;;;;2.78;1.80;;;;;;;;;;5075263;28;20056;-62
2023/08/14 12:09:50;;;;;;;2.65;1.90;;;;;;;;;;5082432;28;20439;-61
2023/08/14 12:12:19;;;;;;;1.90;1.63;;;;;;;;;;5080000;28;20239;-63
2023/08/14 12:14:49;;;;;;;2.75;1.70;;;;;;;;;;5072085;28;20040;-65
2023/08/14 12:17:19;;;;;;;2.13;1.50;;;;;;;;;;5068192;28;20103;-60
2023/08/14 12:19:52;;;;;;;4.45;1.77;;;;;;;;;;5069872;28;20110;-61
2023/08/14 12:22:21;;;;;;;3.92;2.00;;;;;;;;;;5069792;28;20394;-62
2023/08/14 12:24:50;;;;;;;1.80;1.40;;;;;;;;;;5069976;28;20059;-62
2023/08/14 12:27:19;;;;;;;2.30;1.65;;;;;;;;;;5062883;28;20056;-61
2023/08/14 12:29:49;;;;;;;1.58;1.48;;;;;;;;;;5066085;28;20117;-64
2023/08/14 12:32:20;;;;;;;2.17;1.70;;;;;;;;;;5062232;28;20036;-61
2023/08/14 12:34:47;;;;;;;3.80;1.50;;;;;;;;;;5058990;28;20521;-64
2023/08/14 12:37:16;;;;;;;2.55;1.30;;;;;;;;;;5064608;28;20402;-62
2023/08/14 12:39:48;;;;;;;1.83;1.30;;;;;;;;;;5065042;28;20060;-61
2023/08/14 12:42:16;;;;;;;2.17;1.40;;;;;;;;;;5063928;28;20360;-61
2023/08/14 12:44:45;;;;;;;2.50;1.60;;;;;;;;;;5064643;28;20041;-61
2023/08/14 12:47:13;;;;;;;5.25;1.73;;;;;;;;;;5066268;28;20564;-63
2023/08/14 12:49:43;;;;;;;2.60;1.48;;;;;;;;;;5065134;28;20034;-63
2023/08/14 12:52:12;;;;;;;2.88;1.70;;;;;;;;;;5066542;28;20163;-62
2023/08/14 12:54:41;;;;;;;2.15;1.52;;;;;;;;;;5058790;28;20060;-63
2023/08/14 12:57:09;;;;;;;4.38;1.42;;;;;;;;;;5063634;28;20249;-62
2023/08/14 12:59:38;;;;;;;1.60;1.45;;;;;;;;;;5063209;28;20068;-66
2023/08/14 13:02:06;;;;;;;1.88;1.48;;;;;;;;;;5065501;28;20214;-64
2023/08/14 13:04:34;;;;;;;5.13;1.77;;;;;;;;;;5066352;28;20571;-62
2023/08/14 13:07:05;;;;;;;1.85;1.30;;;;;;;;;;5065786;28;20067;-61
2023/08/14 13:09:33;;;;;;;1.58;1.45;;;;;;;;;;5066015;28;20079;-61
2023/08/14 13:12:02;;;;;;;4.13;1.35;;;;;;;;;;5062071;28;20036;-62
2023/08/14 13:14:30;;;;;;;3.55;1.52;;;;;;;;;;5063247;28;20056;-61
2023/08/14 13:16:59;;;;;;;1.80;1.60;;;;;;;;;;5066472;28;20064;-63
2023/08/14 13:19:27;;;;;;;3.60;1.50;;;;;;;;;;5068144;28;20465;-63
2023/08/14 13:21:56;;;;;;;2.15;1.40;;;;;;;;;;5067594;28;20052;-62
2023/08/14 13:24:25;;;;;;;1.52;1.25;;;;;;;;;;5062853;28;20106;-61
2023/08/14 13:26:54;;;;;;;2.63;1.73;;;;;;;;;;5063468;28;20056;-64
2023/08/14 13:29:42;;;;;;;4.32;1.80;;;;;;;;;;5064923;28;20495;-62
2023/08/14 13:32:10;;;;;;;2.20;1.63;;;;;;;;;;5064172;28;20408;-62
2023/08/14 13:34:39;;;;;;;2.05;1.63;;;;;;;;;;5060547;28;20493;-63
2023/08/14 13:37:07;;;;;;;2.28;1.73;;;;;;;;;;5061324;28;20048;-65
2023/08/14 13:39:37;;;;;;;4.88;1.50;;;;;;;;;;5061055;28;20492;-61
2023/08/14 13:42:06;;;;;;;3.15;1.75;;;;;;;;;;5060653;28;20169;-66
2023/08/14 13:44:34;;;;;;;1.90;1.70;;;;;;;;;;5062354;28;20087;-63
2023/08/14 13:47:03;;;;;;;5.72;1.65;;;;;;;;;;5054572;28;20102;-65
2023/08/14 13:49:31;;;;;;;4.40;1.70;;;;;;;;;;5059787;28;20407;-62
2023/08/14 13:52:00;;;;;;;1.67;1.38;;;;;;;;;;5057822;28;20047;-64
2023/08/14 13:54:28;;;;;;;2.22;1.65;;;;;;;;;;5053324;28;20546;-65
2023/08/14 13:56:58;;;;;;;2.08;1.63;;;;;;;;;;5041055;28;20124;-64
2023/08/14 13:59:26;;;;;;;2.72;1.70;;;;;;;;;;5040239;28;20053;-64
2023/08/14 14:01:55;;;;;;;3.65;1.83;;;;;;;;;;5040854;28;20127;-61
2023/08/14 14:04:23;;;;;;;2.08;1.52;;;;;;;;;;5043158;28;20102;-63
2023/08/14 14:06:52;;;;;;;4.97;2.35;;;;;;;;;;5050100;28;20110;-61
2023/08/14 14:09:20;;;;;;;2.30;1.60;;;;;;;;;;5044433;28;20122;-61
2023/08/14 14:11:48;;;;;;;4.65;2.17;;;;;;;;;;5043696;28;20033;-64
2023/08/14 14:14:18;;;;;;;3.97;1.80;;;;;;;;;;5047350;28;20113;-63
2023/08/14 14:16:53;;;;;;;2.70;1.80;;;;;;;;;;5067390;28;20078;-67
2023/08/14 14:19:22;;;;;;;2.78;2.00;;;;;;;;;;5064706;28;20101;-65
2023/08/14 14:21:50;;;;;;;2.05;1.67;;;;;;;;;;5059903;28;20048;-62
2023/08/14 14:24:19;;;;;;;3.38;1.50;;;;;;;;;;5055809;28;20110;-63
2023/08/14 14:26:47;;;;;;;3.33;1.88;;;;;;;;;;5046827;28;20037;-63
2023/08/14 14:29:16;;;;;;;2.35;2.00;;;;;;;;;;5042087;28;20048;-63
2023/08/14 14:31:45;;;;;;;2.83;1.50;;;;;;;;;;5044629;28;20708;-65
2023/08/14 14:34:14;;;;;;;3.78;1.70;;;;;;;;;;5040855;28;20041;-62
2023/08/14 14:36:42;;;;;;;3.42;1.80;;;;;;;;;;5041639;28;20041;-62
2023/08/14 14:39:11;;;;;;;2.17;1.70;;;;;;;;;;5036349;28;20122;-62
2023/08/14 14:41:39;;;;;;;3.83;1.90;;;;;;;;;;5043486;28;20142;-62
2023/08/14 14:44:08;;;;;;;3.10;1.92;;;;;;;;;;5049605;28;20098;-61
2023/08/14 14:46:36;;;;;;;3.97;2.55;;;;;;;;;;5063543;28;20163;-62
2023/08/14 14:49:06;;;;;;;2.67;1.63;;;;;;;;;;5060094;28;20043;-65
2023/08/14 14:51:34;;;;;;;2.42;1.77;;;;;;;;;;5059111;28;20149;-62
2023/08/14 14:54:03;;;;;;;2.55;1.88;;;;;;;;;;5058590;28;20041;-66
2023/08/14 14:56:31;;;;;;;2.85;1.70;;;;;;;;;;5060433;28;20507;-61